Time,TemperatureF,DewpointF,PressureIn,WindDirection,WindDirectionDegrees,WindSpeedMPH,WindSpeedGustMPH,Humidity,HourlyPrecipIn,Conditions,Clouds,dailyrainin,SoftwareType,DateUTC
2013-08-13 00:02:00,70.9,67.5,29.98,South,180,0.0,-999.0,89,0.00,,,0.12,open2300 v1.10,2013-08-13 05:02:00,
2013-08-13 00:09:00,70.9,67.5,29.98,South,180,0.0,-999.0,89,0.00,,,0.12,open2300 v1.10,2013-08-13 05:09:00,
2013-08-13 00:15:00,70.9,67.8,29.98,South,180,0.0,-999.0,90,0.00,,,0.12,open2300 v1.10,2013-08-13 05:15:00,
2013-08-13 00:24:00,70.9,67.8,29.98,South,180,0.0,-999.0,90,0.00,,,0.12,open2300 v1.10,2013-08-13 05:24:00,
2013-08-13 00:30:00,70.7,67.6,29.98,South,180,0.0,-999.0,90,0.00,,,0.12,open2300 v1.10,2013-08-13 05:30:00,
2013-08-13 00:39:00,70.7,67.6,29.98,South,180,0.0,-999.0,90,0.00,,,0.12,open2300 v1.10,2013-08-13 05:39:00,
2013-08-13 00:45:00,70.5,67.5,29.98,South,180,0.0,-999.0,90,0.00,,,0.12,open2300 v1.10,2013-08-13 05:45:00,
2013-08-13 00:54:00,70.7,67.6,29.98,SSE,157,0.0,-999.0,90,0.00,,,0.12,open2300 v1.10,2013-08-13 05:54:00,
2013-08-13 01:03:00,70.7,67.6,29.97,SSE,157,0.0,-999.0,90,0.00,,,0.12,open2300 v1.10,2013-08-13 06:03:00,
2013-08-13 01:09:00,70.7,67.6,29.98,SSE,157,0.0,-999.0,90,0.00,,,0.12,open2300 v1.10,2013-08-13 06:09:00,
2013-08-13 01:15:00,70.7,67.6,29.98,SSE,157,0.0,-999.0,90,0.00,,,0.12,open2300 v1.10,2013-08-13 06:15:00,
2013-08-13 01:24:00,70.7,67.6,29.97,SE,135,0.0,-999.0,90,0.00,,,0.12,open2300 v1.10,2013-08-13 06:24:00,
2013-08-13 01:30:00,70.7,67.6,29.97,SE,135,0.0,-999.0,90,0.00,,,0.12,open2300 v1.10,2013-08-13 06:30:00,
2013-08-13 01:39:00,70.7,67.6,29.97,SE,135,0.0,-999.0,90,0.00,,,0.12,open2300 v1.10,2013-08-13 06:39:00,
2013-08-13 01:45:00,70.5,67.5,29.96,SE,135,0.0,-999.0,90,0.00,,,0.12,open2300 v1.10,2013-08-13 06:45:00,
2013-08-13 01:54:00,70.5,67.5,29.96,SE,135,0.0,-999.0,90,0.00,,,0.12,open2300 v1.10,2013-08-13 06:54:00,
2013-08-13 02:02:00,70.5,67.5,29.96,SE,135,0.0,-999.0,90,0.00,,,0.12,open2300 v1.10,2013-08-13 07:02:00,
2013-08-13 02:09:00,70.5,67.5,29.96,SE,135,0.0,-999.0,90,0.00,,,0.12,open2300 v1.10,2013-08-13 07:09:00,
2013-08-13 02:15:00,70.5,67.5,29.96,SE,135,0.0,-999.0,90,0.00,,,0.12,open2300 v1.10,2013-08-13 07:15:00,
2013-08-13 02:24:00,70.5,67.5,29.95,SE,135,0.0,-999.0,90,0.00,,,0.12,open2300 v1.10,2013-08-13 07:24:00,
2013-08-13 02:30:00,70.5,67.8,29.96,SE,135,0.0,-999.0,91,0.00,,,0.12,open2300 v1.10,2013-08-13 07:30:00,
2013-08-13 02:39:00,70.3,67.6,29.95,SE,135,0.0,-999.0,91,0.00,,,0.12,open2300 v1.10,2013-08-13 07:39:00,
2013-08-13 02:45:00,70.3,67.6,29.95,SE,135,0.0,-999.0,91,0.00,,,0.12,open2300 v1.10,2013-08-13 07:45:00,
2013-08-13 02:54:00,70.3,67.6,29.96,SE,135,0.0,-999.0,91,0.00,,,0.12,open2300 v1.10,2013-08-13 07:54:00,
2013-08-13 03:02:00,70.3,67.6,29.96,SE,135,0.0,-999.0,91,0.00,,,0.12,open2300 v1.10,2013-08-13 08:02:00,
2013-08-13 03:09:00,70.3,67.6,29.96,SE,135,0.0,-999.0,91,0.00,,,0.12,open2300 v1.10,2013-08-13 08:09:00,
2013-08-13 03:15:00,70.2,67.4,29.96,SE,135,0.0,-999.0,91,0.00,,,0.12,open2300 v1.10,2013-08-13 08:15:00,
2013-08-13 03:24:00,70.2,67.4,29.96,SE,135,0.0,-999.0,91,0.00,,,0.12,open2300 v1.10,2013-08-13 08:24:00,
2013-08-13 03:30:00,70.0,67.2,29.96,SE,135,0.0,-999.0,91,0.00,,,0.12,open2300 v1.10,2013-08-13 08:30:00,
2013-08-13 03:39:00,70.0,67.2,29.96,SE,135,0.0,-999.0,91,0.00,,,0.12,open2300 v1.10,2013-08-13 08:39:00,
2013-08-13 03:45:00,70.0,67.2,29.96,SE,135,0.0,-999.0,91,0.00,,,0.12,open2300 v1.10,2013-08-13 08:45:00,
2013-08-13 03:54:00,70.0,67.2,29.96,SE,135,0.0,-999.0,91,0.00,,,0.12,open2300 v1.10,2013-08-13 08:54:00,
2013-08-13 04:02:00,70.0,67.2,29.96,SE,135,0.0,-999.0,91,0.00,,,0.12,open2300 v1.10,2013-08-13 09:02:00,
2013-08-13 04:09:00,70.0,67.2,29.96,SE,135,0.0,-999.0,91,0.00,,,0.12,open2300 v1.10,2013-08-13 09:09:00,
2013-08-13 04:15:00,70.0,67.2,29.96,SE,135,0.0,-999.0,91,0.00,,,0.12,open2300 v1.10,2013-08-13 09:15:00,
2013-08-13 04:24:00,70.0,67.2,29.96,SE,135,0.0,-999.0,91,0.00,,,0.12,open2300 v1.10,2013-08-13 09:24:00,
2013-08-13 04:30:00,70.2,67.4,29.96,SE,135,0.0,-999.0,91,0.00,,,0.12,open2300 v1.10,2013-08-13 09:30:00,
2013-08-13 04:39:00,70.2,67.4,29.96,SE,135,0.0,-999.0,91,0.00,,,0.12,open2300 v1.10,2013-08-13 09:39:00,
2013-08-13 04:45:00,70.3,67.6,29.96,SE,135,0.0,-999.0,91,0.00,,,0.12,open2300 v1.10,2013-08-13 09:45:00,
2013-08-13 04:54:00,70.3,67.6,29.96,SE,135,0.0,-999.0,91,0.00,,,0.12,open2300 v1.10,2013-08-13 09:54:00,
2013-08-13 05:02:00,70.3,67.6,29.96,SE,135,0.0,-999.0,91,0.00,,,0.12,open2300 v1.10,2013-08-13 10:02:00,
2013-08-13 05:09:00,70.5,67.8,29.96,SE,135,0.0,-999.0,91,0.00,,,0.12,open2300 v1.10,2013-08-13 10:09:00,
2013-08-13 05:15:00,70.7,68.2,29.96,SE,135,0.0,-999.0,92,0.00,,,0.12,open2300 v1.10,2013-08-13 10:15:00,
2013-08-13 05:24:00,70.7,68.2,29.96,SE,135,0.0,-999.0,92,0.00,,,0.12,open2300 v1.10,2013-08-13 10:24:00,
2013-08-13 05:30:00,70.9,68.4,29.96,SE,135,0.0,-999.0,92,0.00,,,0.12,open2300 v1.10,2013-08-13 10:30:00,
2013-08-13 05:39:00,70.9,68.4,29.96,SE,135,0.0,-999.0,92,0.00,,,0.12,open2300 v1.10,2013-08-13 10:39:00,
2013-08-13 05:45:00,70.9,68.4,29.96,SE,135,0.0,-999.0,92,0.00,,,0.12,open2300 v1.10,2013-08-13 10:45:00,
2013-08-13 05:54:00,70.9,68.4,29.97,SE,135,0.0,-999.0,92,0.00,,,0.12,open2300 v1.10,2013-08-13 10:54:00,
2013-08-13 06:02:00,70.9,68.4,29.97,SE,135,0.0,-999.0,92,0.00,,,0.12,open2300 v1.10,2013-08-13 11:02:00,
2013-08-13 06:09:00,70.9,68.4,29.98,SE,135,0.0,-999.0,92,0.00,,,0.12,open2300 v1.10,2013-08-13 11:09:00,
2013-08-13 06:15:00,70.9,68.4,29.98,SE,135,0.0,-999.0,92,0.00,,,0.12,open2300 v1.10,2013-08-13 11:15:00,
2013-08-13 06:24:00,70.9,68.4,29.98,SE,135,0.0,-999.0,92,0.00,,,0.12,open2300 v1.10,2013-08-13 11:24:00,
2013-08-13 06:30:00,70.9,68.4,29.98,SE,135,0.0,-999.0,92,0.00,,,0.12,open2300 v1.10,2013-08-13 11:30:00,
2013-08-13 06:39:00,71.1,68.6,29.98,SE,135,0.0,-999.0,92,0.00,,,0.12,open2300 v1.10,2013-08-13 11:39:00,
2013-08-13 06:45:00,70.9,68.4,29.99,SE,135,0.0,-999.0,92,0.00,,,0.12,open2300 v1.10,2013-08-13 11:45:00,
2013-08-13 06:54:00,71.2,68.8,29.98,SE,135,0.0,-999.0,92,0.00,,,0.12,open2300 v1.10,2013-08-13 11:54:00,
2013-08-13 07:02:00,71.2,68.8,29.98,SE,135,0.0,-999.0,92,0.00,,,0.12,open2300 v1.10,2013-08-13 12:02:00,
2013-08-13 07:09:00,71.2,68.8,29.98,SE,135,0.0,-999.0,92,0.00,,,0.12,open2300 v1.10,2013-08-13 12:09:00,
2013-08-13 07:15:00,71.4,69.0,29.98,SE,135,0.0,-999.0,92,0.00,,,0.12,open2300 v1.10,2013-08-13 12:15:00,
2013-08-13 07:24:00,71.8,69.3,29.98,SE,135,0.0,-999.0,92,0.00,,,0.12,open2300 v1.10,2013-08-13 12:24:00,
2013-08-13 07:30:00,72.1,69.7,29.98,SE,135,0.0,-999.0,92,0.00,,,0.12,open2300 v1.10,2013-08-13 12:30:00,
2013-08-13 07:39:00,72.7,70.2,29.98,SE,135,0.0,-999.0,92,0.00,,,0.12,open2300 v1.10,2013-08-13 12:39:00,
2013-08-13 07:45:00,73.0,70.6,29.98,SE,135,0.0,-999.0,92,0.00,,,0.12,open2300 v1.10,2013-08-13 12:45:00,
2013-08-13 07:54:00,73.2,70.8,29.98,SE,135,0.0,-999.0,92,0.00,,,0.12,open2300 v1.10,2013-08-13 12:54:00,
2013-08-13 08:02:00,73.4,70.9,29.99,SE,135,0.0,-999.0,92,0.00,,,0.12,open2300 v1.10,2013-08-13 13:02:00,
2013-08-13 08:09:00,73.2,70.8,29.99,SE,135,0.0,-999.0,92,0.00,,,0.12,open2300 v1.10,2013-08-13 13:09:00,
2013-08-13 08:15:00,73.4,70.9,29.99,SSE,157,0.0,-999.0,92,0.00,,,0.12,open2300 v1.10,2013-08-13 13:15:00,
2013-08-13 08:24:00,73.6,71.1,29.99,SSE,157,0.0,-999.0,92,0.00,,,0.12,open2300 v1.10,2013-08-13 13:24:00,
2013-08-13 08:30:00,73.9,71.5,29.99,SSE,157,0.0,-999.0,92,0.00,,,0.12,open2300 v1.10,2013-08-13 13:30:00,
2013-08-13 08:39:00,74.1,71.7,30.00,SSE,157,0.0,-999.0,92,0.00,,,0.12,open2300 v1.10,2013-08-13 13:39:00,
2013-08-13 08:45:00,74.5,72.0,30.00,SSE,157,0.0,-999.0,92,0.00,,,0.12,open2300 v1.10,2013-08-13 13:45:00,
2013-08-13 08:54:00,74.8,72.1,30.00,SSE,157,0.0,-999.0,91,0.00,,,0.12,open2300 v1.10,2013-08-13 13:54:00,
2013-08-13 09:02:00,74.8,72.1,30.00,SSE,157,0.0,-999.0,91,0.00,,,0.12,open2300 v1.10,2013-08-13 14:02:00,
2013-08-13 09:09:00,75.4,72.6,30.00,SSE,157,0.0,-999.0,91,0.00,,,0.12,open2300 v1.10,2013-08-13 14:09:00,
2013-08-13 09:15:00,75.9,73.2,30.01,SSE,157,0.0,-999.0,91,0.00,,,0.12,open2300 v1.10,2013-08-13 14:15:00,
2013-08-13 09:24:00,76.5,73.4,30.01,SSE,157,0.0,-999.0,90,0.00,,,0.12,open2300 v1.10,2013-08-13 14:24:00,
2013-08-13 09:30:00,76.8,73.8,30.01,SSE,157,0.0,-999.0,90,0.00,,,0.12,open2300 v1.10,2013-08-13 14:30:00,
2013-08-13 09:39:00,76.8,73.4,30.01,SSE,157,0.0,-999.0,89,0.00,,,0.12,open2300 v1.10,2013-08-13 14:39:00,
2013-08-13 09:45:00,77.2,73.8,30.01,SSE,157,0.0,-999.0,89,0.00,,,0.12,open2300 v1.10,2013-08-13 14:45:00,
2013-08-13 09:54:00,77.0,73.2,30.01,SSE,157,0.0,-999.0,88,0.00,,,0.12,open2300 v1.10,2013-08-13 14:54:00,
2013-08-13 10:02:00,77.9,74.1,30.01,SSE,157,0.0,-999.0,88,0.00,,,0.12,open2300 v1.10,2013-08-13 15:02:00,
2013-08-13 10:09:00,78.4,74.7,30.01,SSE,157,0.0,-999.0,88,0.00,,,0.12,open2300 v1.10,2013-08-13 15:09:00,
2013-08-13 10:15:00,78.6,74.5,30.01,SSE,157,0.0,-999.0,87,0.00,,,0.12,open2300 v1.10,2013-08-13 15:15:00,
2013-08-13 10:24:00,78.6,74.5,30.01,SE,135,0.0,-999.0,87,0.00,,,0.12,open2300 v1.10,2013-08-13 15:24:00,
2013-08-13 10:30:00,79.0,74.5,30.01,SE,135,0.0,-999.0,86,0.00,,,0.12,open2300 v1.10,2013-08-13 15:30:00,
2013-08-13 10:39:00,79.2,74.6,30.01,SE,135,0.0,-999.0,86,0.00,,,0.12,open2300 v1.10,2013-08-13 15:39:00,
2013-08-13 10:45:00,79.0,74.5,30.01,SE,135,0.0,-999.0,86,0.00,,,0.12,open2300 v1.10,2013-08-13 15:45:00,
2013-08-13 10:54:00,79.0,74.5,30.01,SE,135,0.0,-999.0,86,0.00,,,0.12,open2300 v1.10,2013-08-13 15:54:00,
2013-08-13 11:02:00,79.2,74.3,30.01,SE,135,0.0,-999.0,85,0.00,,,0.12,open2300 v1.10,2013-08-13 16:02:00,
2013-08-13 11:09:00,79.5,74.6,30.01,SE,135,0.0,-999.0,85,0.00,,,0.12,open2300 v1.10,2013-08-13 16:09:00,
2013-08-13 11:15:00,79.7,74.4,30.00,SSE,157,0.0,-999.0,84,0.00,,,0.12,open2300 v1.10,2013-08-13 16:15:00,
2013-08-13 11:24:00,79.9,75.0,30.01,SW,225,0.0,-999.0,85,0.00,,,0.12,open2300 v1.10,2013-08-13 16:24:00,
2013-08-13 11:30:00,81.1,75.5,30.00,NNW,337,0.0,-999.0,83,0.00,,,0.12,open2300 v1.10,2013-08-13 16:30:00,
2013-08-13 11:39:00,82.6,76.2,30.00,SE,135,0.0,-999.0,81,0.00,,,0.12,open2300 v1.10,2013-08-13 16:39:00,
2013-08-13 11:45:00,82.8,76.1,30.00,SE,135,0.0,-999.0,80,0.00,,,0.12,open2300 v1.10,2013-08-13 16:45:00,
2013-08-13 11:54:00,82.4,74.9,30.00,SE,135,0.0,-999.0,78,0.00,,,0.12,open2300 v1.10,2013-08-13 16:54:00,
2013-08-13 12:02:00,82.0,75.0,30.00,SE,135,0.0,-999.0,79,0.00,,,0.12,open2300 v1.10,2013-08-13 17:02:00,
2013-08-13 12:15:00,82.6,75.1,30.01,SE,135,0.0,-999.0,78,0.00,,,0.12,open2300 v1.10,2013-08-13 17:15:00,
2013-08-13 12:24:00,82.2,74.7,30.01,NE,45,0.0,-999.0,78,0.00,,,0.12,open2300 v1.10,2013-08-13 17:24:00,
2013-08-13 12:30:00,81.9,74.4,30.01,NE,45,0.0,-999.0,78,0.00,,,0.12,open2300 v1.10,2013-08-13 17:30:00,
2013-08-13 12:39:00,81.7,74.2,30.00,NE,45,0.0,-999.0,78,0.00,,,0.12,open2300 v1.10,2013-08-13 17:39:00,
2013-08-13 12:46:00,82.0,74.1,30.00,NNE,22,0.0,-999.0,77,0.00,,,0.12,open2300 v1.10,2013-08-13 17:46:00,
2013-08-13 12:54:00,81.7,74.2,30.00,NNE,22,0.0,-999.0,78,0.00,,,0.12,open2300 v1.10,2013-08-13 17:54:00,
2013-08-13 13:02:00,81.7,74.2,30.00,NNW,337,0.0,-999.0,78,0.00,,,0.12,open2300 v1.10,2013-08-13 18:02:00,
2013-08-13 13:09:00,82.0,74.1,30.00,NNW,337,0.0,-999.0,77,0.00,,,0.12,open2300 v1.10,2013-08-13 18:09:00,
2013-08-13 13:15:00,82.2,74.3,30.00,NNW,337,0.0,-999.0,77,0.00,,,0.12,open2300 v1.10,2013-08-13 18:15:00,
2013-08-13 13:24:00,82.2,74.3,29.99,NNW,337,0.0,-999.0,77,0.00,,,0.12,open2300 v1.10,2013-08-13 18:24:00,
2013-08-13 13:30:00,82.2,74.3,29.99,NNW,337,0.0,-999.0,77,0.00,,,0.12,open2300 v1.10,2013-08-13 18:30:00,
2013-08-13 13:39:00,82.2,73.9,29.99,NNW,337,0.0,-999.0,76,0.00,,,0.12,open2300 v1.10,2013-08-13 18:39:00,
2013-08-13 13:45:00,82.2,73.9,29.99,NNW,337,0.0,-999.0,76,0.00,,,0.12,open2300 v1.10,2013-08-13 18:45:00,
2013-08-13 13:54:00,82.0,73.7,29.98,NNW,337,0.0,-999.0,76,0.00,,,0.12,open2300 v1.10,2013-08-13 18:54:00,
2013-08-13 14:02:00,82.0,73.7,29.98,NNW,337,0.0,-999.0,76,0.00,,,0.12,open2300 v1.10,2013-08-13 19:02:00,
2013-08-13 14:09:00,81.7,73.4,29.98,NNW,337,0.0,-999.0,76,0.00,,,0.12,open2300 v1.10,2013-08-13 19:09:00,
2013-08-13 14:15:00,81.3,73.0,29.98,NNW,337,0.0,-999.0,76,0.00,,,0.12,open2300 v1.10,2013-08-13 19:15:00,
2013-08-13 14:24:00,81.5,73.6,29.98,NNW,337,0.0,-999.0,77,0.00,,,0.12,open2300 v1.10,2013-08-13 19:24:00,
2013-08-13 14:30:00,81.7,73.4,29.97,NNW,337,0.0,-999.0,76,0.00,,,0.12,open2300 v1.10,2013-08-13 19:30:00,
2013-08-13 14:39:00,81.5,73.6,29.97,North,0,0.0,-999.0,77,0.00,,,0.12,open2300 v1.10,2013-08-13 19:39:00,
2013-08-13 14:45:00,81.5,73.6,29.96,North,0,0.0,-999.0,77,0.00,,,0.12,open2300 v1.10,2013-08-13 19:45:00,
2013-08-13 14:54:00,81.7,73.8,29.96,North,0,0.0,-999.0,77,0.00,,,0.12,open2300 v1.10,2013-08-13 19:54:00,
2013-08-13 15:02:00,82.2,73.9,29.95,North,0,0.0,-999.0,76,0.00,,,0.12,open2300 v1.10,2013-08-13 20:02:00,
2013-08-13 15:09:00,82.9,74.2,29.94,North,0,0.0,-999.0,75,0.00,,,0.12,open2300 v1.10,2013-08-13 20:09:00,
2013-08-13 15:15:00,82.9,73.8,29.94,North,0,0.0,-999.0,74,0.00,,,0.12,open2300 v1.10,2013-08-13 20:15:00,
2013-08-13 15:24:00,83.1,73.5,29.93,ENE,67,0.0,-999.0,73,0.00,,,0.12,open2300 v1.10,2013-08-13 20:24:00,
2013-08-13 15:30:00,83.1,73.1,29.93,ENE,67,0.0,-999.0,72,0.00,,,0.12,open2300 v1.10,2013-08-13 20:30:00,
2013-08-13 15:39:00,82.8,72.8,29.93,ENE,67,0.0,-999.0,72,0.00,,,0.12,open2300 v1.10,2013-08-13 20:39:00,
2013-08-13 15:45:00,82.9,72.5,29.93,ENE,67,0.0,-999.0,71,0.00,,,0.12,open2300 v1.10,2013-08-13 20:45:00,
2013-08-13 15:54:00,83.8,73.0,29.93,ENE,67,0.0,-999.0,70,0.00,,,0.12,open2300 v1.10,2013-08-13 20:54:00,
2013-08-13 16:02:00,84.0,72.8,29.93,North,0,0.0,-999.0,69,0.00,,,0.12,open2300 v1.10,2013-08-13 21:02:00,
2013-08-13 16:09:00,83.8,72.6,29.93,ENE,67,0.0,-999.0,69,0.00,,,0.12,open2300 v1.10,2013-08-13 21:09:00,
2013-08-13 16:15:00,83.5,72.2,29.92,NE,45,0.0,-999.0,69,0.00,,,0.12,open2300 v1.10,2013-08-13 21:15:00,
2013-08-13 16:24:00,83.5,71.3,29.93,NNE,22,0.0,-999.0,67,0.00,,,0.12,open2300 v1.10,2013-08-13 21:24:00,
2013-08-13 16:30:00,83.5,71.3,29.93,North,0,0.0,-999.0,67,0.00,,,0.12,open2300 v1.10,2013-08-13 21:30:00,
2013-08-13 16:39:00,83.5,71.8,29.93,North,0,0.0,-999.0,68,0.00,,,0.12,open2300 v1.10,2013-08-13 21:39:00,
2013-08-13 16:45:00,83.7,72.0,29.93,North,0,0.0,-999.0,68,0.00,,,0.12,open2300 v1.10,2013-08-13 21:45:00,
2013-08-13 16:54:00,83.5,71.8,29.93,North,0,0.0,-999.0,68,0.00,,,0.12,open2300 v1.10,2013-08-13 21:54:00,
2013-08-13 17:02:00,83.8,72.6,29.93,North,0,0.0,-999.0,69,0.00,,,0.12,open2300 v1.10,2013-08-13 22:02:00,
2013-08-13 17:09:00,84.0,72.3,29.93,NNE,22,0.0,-999.0,68,0.00,,,0.12,open2300 v1.10,2013-08-13 22:09:00,
2013-08-13 17:15:00,84.0,72.3,29.93,NNE,22,0.0,-999.0,68,0.00,,,0.12,open2300 v1.10,2013-08-13 22:15:00,
2013-08-13 17:24:00,83.8,72.1,29.92,NE,45,0.0,-999.0,68,0.00,,,0.12,open2300 v1.10,2013-08-13 22:24:00,
2013-08-13 17:30:00,83.5,71.8,29.93,ENE,67,0.0,-999.0,68,0.00,,,0.12,open2300 v1.10,2013-08-13 22:30:00,
2013-08-13 17:39:00,82.9,71.2,29.93,East,90,0.0,-999.0,68,0.00,,,0.12,open2300 v1.10,2013-08-13 22:39:00,
2013-08-13 17:45:00,82.8,71.1,29.92,ENE,67,0.0,-999.0,68,0.00,,,0.12,open2300 v1.10,2013-08-13 22:45:00,
2013-08-13 17:54:00,82.2,71.4,29.92,ENE,67,0.0,-999.0,70,0.00,,,0.12,open2300 v1.10,2013-08-13 22:54:00,
2013-08-13 18:02:00,81.7,71.3,29.92,ENE,67,0.0,-999.0,71,0.00,,,0.12,open2300 v1.10,2013-08-13 23:02:00,
2013-08-13 18:09:00,81.3,71.0,29.92,ENE,67,0.0,-999.0,71,0.00,,,0.12,open2300 v1.10,2013-08-13 23:09:00,
2013-08-13 18:15:00,81.1,70.9,29.92,ENE,67,0.0,-999.0,71,0.00,,,0.12,open2300 v1.10,2013-08-13 23:15:00,
2013-08-13 18:24:00,80.8,70.5,29.92,ENE,67,0.0,-999.0,71,0.00,,,0.12,open2300 v1.10,2013-08-13 23:24:00,
2013-08-13 18:30:00,80.6,70.4,29.93,ENE,67,0.0,-999.0,71,0.00,,,0.12,open2300 v1.10,2013-08-13 23:30:00,
2013-08-13 18:39:00,80.2,70.4,29.93,ENE,67,0.0,-999.0,72,0.00,,,0.12,open2300 v1.10,2013-08-13 23:39:00,
2013-08-13 18:46:00,80.1,70.2,29.93,ENE,67,0.0,-999.0,72,0.00,,,0.12,open2300 v1.10,2013-08-13 23:46:00,
2013-08-13 18:54:00,79.9,70.4,29.93,ENE,67,0.0,-999.0,73,0.00,,,0.12,open2300 v1.10,2013-08-13 23:54:00,
2013-08-13 19:02:00,79.7,70.3,29.93,ENE,67,0.0,-999.0,73,0.00,,,0.10,open2300 v1.10,2013-08-14 00:02:00,
2013-08-13 19:09:00,79.5,70.5,29.93,ENE,67,0.0,-999.0,74,0.00,,,0.10,open2300 v1.10,2013-08-14 00:09:00,
2013-08-13 19:15:00,79.3,70.7,29.93,ENE,67,0.0,-999.0,75,0.00,,,0.10,open2300 v1.10,2013-08-14 00:15:00,
2013-08-13 19:24:00,79.0,70.3,29.93,ENE,67,0.0,-999.0,75,0.00,,,0.10,open2300 v1.10,2013-08-14 00:24:00,
2013-08-13 19:30:00,79.0,69.9,29.94,ENE,67,0.0,-999.0,74,0.00,,,0.10,open2300 v1.10,2013-08-14 00:30:00,
2013-08-13 19:39:00,78.4,69.8,29.94,ENE,67,0.0,-999.0,75,0.00,,,0.10,open2300 v1.10,2013-08-14 00:39:00,
2013-08-13 19:45:00,78.1,69.5,29.94,ENE,67,0.0,-999.0,75,0.00,,,0.10,open2300 v1.10,2013-08-14 00:45:00,
2013-08-13 19:54:00,77.5,68.9,29.94,ENE,67,0.0,-999.0,75,0.00,,,0.10,open2300 v1.10,2013-08-14 00:54:00,
2013-08-13 20:02:00,77.4,69.2,29.94,ENE,67,0.0,-999.0,76,0.00,,,0.02,open2300 v1.10,2013-08-14 01:02:00,
2013-08-13 20:09:00,76.8,68.7,29.94,ENE,67,0.0,-999.0,76,0.00,,,0.02,open2300 v1.10,2013-08-14 01:09:00,
2013-08-13 20:15:00,76.8,69.0,29.95,ENE,67,0.0,-999.0,77,0.00,,,0.02,open2300 v1.10,2013-08-14 01:15:00,
2013-08-13 20:24:00,76.5,68.7,29.96,ENE,67,0.0,-999.0,77,0.00,,,0.02,open2300 v1.10,2013-08-14 01:24:00,
2013-08-13 20:31:00,76.3,68.5,29.96,ENE,67,0.0,-999.0,77,0.00,,,0.02,open2300 v1.10,2013-08-14 01:31:00,
2013-08-13 20:39:00,75.9,68.6,29.95,ENE,67,0.0,-999.0,78,0.00,,,0.02,open2300 v1.10,2013-08-14 01:39:00,
2013-08-13 20:46:00,75.9,69.0,29.95,ENE,67,0.0,-999.0,79,0.00,,,0.02,open2300 v1.10,2013-08-14 01:46:00,
2013-08-13 20:54:00,75.6,68.7,29.96,ENE,67,0.0,-999.0,79,0.00,,,0.02,open2300 v1.10,2013-08-14 01:54:00,
2013-08-13 21:02:00,75.4,68.5,29.96,ENE,67,0.0,-999.0,79,0.00,,,0.02,open2300 v1.10,2013-08-14 02:02:00,
2013-08-13 21:09:00,75.4,69.2,29.96,ENE,67,0.0,-999.0,81,0.00,,,0.02,open2300 v1.10,2013-08-14 02:09:00,
2013-08-13 21:15:00,75.0,68.9,29.97,ENE,67,0.0,-999.0,81,0.00,,,0.02,open2300 v1.10,2013-08-14 02:15:00,
2013-08-13 21:24:00,75.0,68.9,29.98,ENE,67,0.0,-999.0,81,0.00,,,0.02,open2300 v1.10,2013-08-14 02:24:00,
2013-08-13 21:30:00,74.8,68.7,29.98,ENE,67,0.0,-999.0,81,0.00,,,0.02,open2300 v1.10,2013-08-14 02:30:00,
2013-08-13 21:39:00,74.7,68.9,29.98,ENE,67,0.0,-999.0,82,0.00,,,0.02,open2300 v1.10,2013-08-14 02:39:00,
2013-08-13 21:45:00,74.5,68.7,29.98,ENE,67,0.0,-999.0,82,0.00,,,0.02,open2300 v1.10,2013-08-14 02:45:00,
2013-08-13 21:54:00,74.3,68.8,29.98,ENE,67,0.0,-999.0,83,0.00,,,0.02,open2300 v1.10,2013-08-14 02:54:00,
2013-08-13 22:02:00,74.3,68.8,29.98,ENE,67,0.0,-999.0,83,0.00,,,0.00,open2300 v1.10,2013-08-14 03:02:00,
2013-08-13 22:09:00,74.1,69.0,29.98,ENE,67,0.0,-999.0,84,0.00,,,0.00,open2300 v1.10,2013-08-14 03:09:00,
2013-08-13 22:15:00,74.1,69.3,29.98,ENE,67,0.0,-999.0,85,0.00,,,0.00,open2300 v1.10,2013-08-14 03:15:00,
2013-08-13 22:24:00,74.1,69.3,29.98,ENE,67,0.0,-999.0,85,0.00,,,0.00,open2300 v1.10,2013-08-14 03:24:00,
2013-08-13 22:30:00,74.1,69.3,29.98,ENE,67,0.0,-999.0,85,0.00,,,0.00,open2300 v1.10,2013-08-14 03:30:00,
2013-08-13 22:39:00,74.1,69.3,29.98,ENE,67,0.0,-999.0,85,0.00,,,0.00,open2300 v1.10,2013-08-14 03:39:00,
2013-08-13 22:46:00,74.1,69.3,29.98,ENE,67,0.0,-999.0,85,0.00,,,0.00,open2300 v1.10,2013-08-14 03:46:00,
2013-08-13 22:54:00,74.1,69.3,29.98,ENE,67,0.0,-999.0,85,0.00,,,0.00,open2300 v1.10,2013-08-14 03:54:00,
2013-08-13 23:02:00,74.1,69.3,29.98,ENE,67,0.0,-999.0,85,0.00,,,0.00,open2300 v1.10,2013-08-14 04:02:00,
2013-08-13 23:09:00,74.1,69.0,29.98,ENE,67,0.0,-999.0,84,0.00,,,0.00,open2300 v1.10,2013-08-14 04:09:00,
2013-08-13 23:15:00,74.3,69.2,29.98,ENE,67,0.0,-999.0,84,0.00,,,0.00,open2300 v1.10,2013-08-14 04:15:00,
2013-08-13 23:24:00,74.3,68.8,29.98,ENE,67,0.0,-999.0,83,0.00,,,0.00,open2300 v1.10,2013-08-14 04:24:00,
2013-08-13 23:30:00,74.3,68.8,29.98,ENE,67,0.0,-999.0,83,0.00,,,0.00,open2300 v1.10,2013-08-14 04:30:00,
2013-08-13 23:39:00,74.3,68.5,29.98,ENE,67,0.0,-999.0,82,0.00,,,0.00,open2300 v1.10,2013-08-14 04:39:00,
2013-08-13 23:46:00,74.1,68.3,29.98,ENE,67,0.0,-999.0,82,0.00,,,0.00,open2300 v1.10,2013-08-14 04:46:00,
2013-08-13 23:54:00,74.1,68.0,29.98,ENE,67,0.0,-999.0,81,0.00,,,0.00,open2300 v1.10,2013-08-14 04:54:00,